sensor_id;sensor_type;location;lat;lon;timestamp;temperature;humidity
3067;DHT22;1544;48.834;9.194;2023-05-19T00:02:01;13.20;29.60
3067;DHT22;1544;48.834;9.194;2023-05-19T00:04:41;13.10;29.70
3067;DHT22;1544;48.834;9.194;2023-05-19T00:07:17;13.10;29.80
3067;DHT22;1544;48.834;9.194;2023-05-19T00:09:56;13.00;30.00
3067;DHT22;1544;48.834;9.194;2023-05-19T00:12:33;13.00;30.10
3067;DHT22;1544;48.834;9.194;2023-05-19T00:15:10;12.90;30.20
3067;DHT22;1544;48.834;9.194;2023-05-19T00:17:46;12.90;30.30
3067;DHT22;1544;48.834;9.194;2023-05-19T00:20:23;12.80;30.30
3067;DHT22;1544;48.834;9.194;2023-05-19T00:22:59;12.80;30.30
3067;DHT22;1544;48.834;9.194;2023-05-19T00:25:35;12.80;30.30
3067;DHT22;1544;48.834;9.194;2023-05-19T00:28:11;12.80;30.20
3067;DHT22;1544;48.834;9.194;2023-05-19T00:30:47;12.80;30.20
3067;DHT22;1544;48.834;9.194;2023-05-19T00:33:23;12.80;30.20
3067;DHT22;1544;48.834;9.194;2023-05-19T00:35:59;12.90;30.30
3067;DHT22;1544;48.834;9.194;2023-05-19T00:38:39;12.90;30.30
3067;DHT22;1544;48.834;9.194;2023-05-19T00:41:15;12.80;30.20
3067;DHT22;1544;48.834;9.194;2023-05-19T00:43:51;12.90;30.30
3067;DHT22;1544;48.834;9.194;2023-05-19T00:46:27;12.80;30.30
3067;DHT22;1544;48.834;9.194;2023-05-19T00:49:03;12.90;30.40
3067;DHT22;1544;48.834;9.194;2023-05-19T00:51:39;12.90;30.30
3067;DHT22;1544;48.834;9.194;2023-05-19T00:54:15;12.90;30.40
3067;DHT22;1544;48.834;9.194;2023-05-19T00:56:55;12.80;30.40
3067;DHT22;1544;48.834;9.194;2023-05-19T00:59:32;12.80;30.40
3067;DHT22;1544;48.834;9.194;2023-05-19T01:02:08;12.80;30.50
3067;DHT22;1544;48.834;9.194;2023-05-19T01:04:45;12.70;30.50
3067;DHT22;1544;48.834;9.194;2023-05-19T01:07:22;12.70;30.70
3067;DHT22;1544;48.834;9.194;2023-05-19T01:09:59;12.60;30.80
3067;DHT22;1544;48.834;9.194;2023-05-19T01:12:35;12.60;30.90
3067;DHT22;1544;48.834;9.194;2023-05-19T01:15:12;12.50;30.90
3067;DHT22;1544;48.834;9.194;2023-05-19T01:18:10;12.50;31.00
3067;DHT22;1544;48.834;9.194;2023-05-19T01:20:51;12.50;31.10
3067;DHT22;1544;48.834;9.194;2023-05-19T01:23:50;12.50;31.10
3067;DHT22;1544;48.834;9.194;2023-05-19T01:30:08;12.50;31.30
3067;DHT22;1544;48.834;9.194;2023-05-19T01:32:46;12.50;31.40
3067;DHT22;1544;48.834;9.194;2023-05-19T01:35:24;12.50;31.50
3067;DHT22;1544;48.834;9.194;2023-05-19T01:38:01;12.40;31.40
3067;DHT22;1544;48.834;9.194;2023-05-19T01:40:39;12.50;31.60
3067;DHT22;1544;48.834;9.194;2023-05-19T01:43:19;12.40;31.50
3067;DHT22;1544;48.834;9.194;2023-05-19T01:45:56;12.50;31.60
3067;DHT22;1544;48.834;9.194;2023-05-19T01:48:34;12.50;31.60
3067;DHT22;1544;48.834;9.194;2023-05-19T01:51:11;12.50;31.50
3067;DHT22;1544;48.834;9.194;2023-05-19T01:53:47;12.50;31.60
3067;DHT22;1544;48.834;9.194;2023-05-19T01:56:37;12.50;31.50
3067;DHT22;1544;48.834;9.194;2023-05-19T02:03:13;12.50;31.60
3067;DHT22;1544;48.834;9.194;2023-05-19T02:06:28;12.50;31.70
3067;DHT22;1544;48.834;9.194;2023-05-19T02:09:37;12.50;31.80
3067;DHT22;1544;48.834;9.194;2023-05-19T02:15:20;12.40;31.80
3067;DHT22;1544;48.834;9.194;2023-05-19T02:17:58;12.50;31.80
3067;DHT22;1544;48.834;9.194;2023-05-19T02:20:39;12.50;31.80
3067;DHT22;1544;48.834;9.194;2023-05-19T02:23:15;12.50;31.80
3067;DHT22;1544;48.834;9.194;2023-05-19T02:25:51;12.50;31.80
3067;DHT22;1544;48.834;9.194;2023-05-19T02:28:27;12.50;31.80
3067;DHT22;1544;48.834;9.194;2023-05-19T02:31:03;12.50;31.80
3067;DHT22;1544;48.834;9.194;2023-05-19T02:33:43;12.50;31.80
3067;DHT22;1544;48.834;9.194;2023-05-19T02:36:19;12.50;31.80
3067;DHT22;1544;48.834;9.194;2023-05-19T02:38:55;12.50;31.80
3067;DHT22;1544;48.834;9.194;2023-05-19T02:41:31;12.50;31.90
3067;DHT22;1544;48.834;9.194;2023-05-19T02:44:07;12.50;31.90
3067;DHT22;1544;48.834;9.194;2023-05-19T02:46:44;12.50;32.30
3067;DHT22;1544;48.834;9.194;2023-05-19T02:49:20;12.50;31.90
3067;DHT22;1544;48.834;9.194;2023-05-19T02:51:56;12.50;31.90
3067;DHT22;1544;48.834;9.194;2023-05-19T02:54:33;12.50;31.90
3067;DHT22;1544;48.834;9.194;2023-05-19T02:57:09;12.50;31.90
3067;DHT22;1544;48.834;9.194;2023-05-19T02:59:45;12.50;31.90
3067;DHT22;1544;48.834;9.194;2023-05-19T03:02:21;12.50;32.00
3067;DHT22;1544;48.834;9.194;2023-05-19T03:04:57;12.50;32.00
3067;DHT22;1544;48.834;9.194;2023-05-19T03:07:36;12.50;32.40
3067;DHT22;1544;48.834;9.194;2023-05-19T03:10:12;12.50;32.50
3067;DHT22;1544;48.834;9.194;2023-05-19T03:12:48;12.50;32.10
3067;DHT22;1544;48.834;9.194;2023-05-19T03:15:24;12.50;32.10
3067;DHT22;1544;48.834;9.194;2023-05-19T03:18:00;12.40;32.10
3067;DHT22;1544;48.834;9.194;2023-05-19T03:20:36;12.30;32.10
3067;DHT22;1544;48.834;9.194;2023-05-19T03:23:15;12.40;32.10
3067;DHT22;1544;48.834;9.194;2023-05-19T03:25:51;12.40;32.20
3067;DHT22;1544;48.834;9.194;2023-05-19T03:28:31;12.40;32.30
3067;DHT22;1544;48.834;9.194;2023-05-19T03:31:07;12.30;32.30
3067;DHT22;1544;48.834;9.194;2023-05-19T03:33:46;12.30;32.40
3067;DHT22;1544;48.834;9.194;2023-05-19T03:36:22;12.30;32.40
3067;DHT22;1544;48.834;9.194;2023-05-19T03:38:58;12.30;32.60
3067;DHT22;1544;48.834;9.194;2023-05-19T03:41:35;12.20;32.70
3067;DHT22;1544;48.834;9.194;2023-05-19T03:44:11;12.10;32.90
3067;DHT22;1544;48.834;9.194;2023-05-19T03:46:47;12.10;33.00
3067;DHT22;1544;48.834;9.194;2023-05-19T03:49:26;12.10;33.10
3067;DHT22;1544;48.834;9.194;2023-05-19T03:52:20;12.00;33.20
3067;DHT22;1544;48.834;9.194;2023-05-19T03:55:04;12.00;33.30
3067;DHT22;1544;48.834;9.194;2023-05-19T03:57:41;11.90;33.40
3067;DHT22;1544;48.834;9.194;2023-05-19T04:00:18;11.90;33.50
3067;DHT22;1544;48.834;9.194;2023-05-19T04:02:54;11.90;33.60
3067;DHT22;1544;48.834;9.194;2023-05-19T04:05:30;11.80;33.50
3067;DHT22;1544;48.834;9.194;2023-05-19T04:08:07;11.80;33.60
3067;DHT22;1544;48.834;9.194;2023-05-19T04:10:43;11.80;33.70
3067;DHT22;1544;48.834;9.194;2023-05-19T04:13:20;11.80;33.80
3067;DHT22;1544;48.834;9.194;2023-05-19T04:15:56;11.70;33.80
3067;DHT22;1544;48.834;9.194;2023-05-19T04:18:33;11.80;33.90
3067;DHT22;1544;48.834;9.194;2023-05-19T04:21:09;11.70;33.90
3067;DHT22;1544;48.834;9.194;2023-05-19T04:23:46;11.80;34.10
3067;DHT22;1544;48.834;9.194;2023-05-19T04:26:22;11.80;34.20
3067;DHT22;1544;48.834;9.194;2023-05-19T04:29:00;11.80;34.30
3067;DHT22;1544;48.834;9.194;2023-05-19T04:31:40;11.70;34.30
3067;DHT22;1544;48.834;9.194;2023-05-19T04:34:16;11.80;34.30
3067;DHT22;1544;48.834;9.194;2023-05-19T04:36:54;11.80;34.40
3067;DHT22;1544;48.834;9.194;2023-05-19T04:39:30;11.80;34.40
3067;DHT22;1544;48.834;9.194;2023-05-19T04:42:07;11.80;34.30
3067;DHT22;1544;48.834;9.194;2023-05-19T04:44:45;11.80;34.30
3067;DHT22;1544;48.834;9.194;2023-05-19T04:47:24;11.80;34.20
3067;DHT22;1544;48.834;9.194;2023-05-19T04:50:06;11.80;34.20
3067;DHT22;1544;48.834;9.194;2023-05-19T04:52:47;11.90;34.30
3067;DHT22;1544;48.834;9.194;2023-05-19T04:55:23;12.00;34.20
3067;DHT22;1544;48.834;9.194;2023-05-19T04:58:01;12.00;34.20
3067;DHT22;1544;48.834;9.194;2023-05-19T05:00:38;12.10;34.20
3067;DHT22;1544;48.834;9.194;2023-05-19T05:03:15;12.20;34.20
3067;DHT22;1544;48.834;9.194;2023-05-19T05:05:53;12.30;34.20
3067;DHT22;1544;48.834;9.194;2023-05-19T05:08:29;12.30;34.00
3067;DHT22;1544;48.834;9.194;2023-05-19T05:11:06;12.40;33.90
3067;DHT22;1544;48.834;9.194;2023-05-19T05:13:43;12.50;33.90
3067;DHT22;1544;48.834;9.194;2023-05-19T05:16:20;12.60;33.80
3067;DHT22;1544;48.834;9.194;2023-05-19T05:18:57;12.70;33.70
3067;DHT22;1544;48.834;9.194;2023-05-19T05:21:35;12.70;33.60
3067;DHT22;1544;48.834;9.194;2023-05-19T05:24:11;12.70;33.40
3067;DHT22;1544;48.834;9.194;2023-05-19T05:26:52;12.80;33.40
3067;DHT22;1544;48.834;9.194;2023-05-19T05:29:28;12.90;33.30
3067;DHT22;1544;48.834;9.194;2023-05-19T05:32:05;12.90;33.30
3067;DHT22;1544;48.834;9.194;2023-05-19T05:34:41;13.00;33.30
3067;DHT22;1544;48.834;9.194;2023-05-19T05:37:18;13.00;33.10
3067;DHT22;1544;48.834;9.194;2023-05-19T05:39:55;13.00;33.00
3067;DHT22;1544;48.834;9.194;2023-05-19T05:42:32;13.10;33.10
3067;DHT22;1544;48.834;9.194;2023-05-19T05:45:08;13.10;32.90
3067;DHT22;1544;48.834;9.194;2023-05-19T05:47:45;13.10;32.90
3067;DHT22;1544;48.834;9.194;2023-05-19T05:50:21;13.10;32.80
3067;DHT22;1544;48.834;9.194;2023-05-19T05:53:00;13.20;32.90
3067;DHT22;1544;48.834;9.194;2023-05-19T05:55:37;13.20;32.90
3067;DHT22;1544;48.834;9.194;2023-05-19T05:58:15;13.20;32.90
3067;DHT22;1544;48.834;9.194;2023-05-19T06:00:51;13.20;32.90
3067;DHT22;1544;48.834;9.194;2023-05-19T06:03:29;13.20;32.90
3067;DHT22;1544;48.834;9.194;2023-05-19T06:06:12;13.30;32.90
3067;DHT22;1544;48.834;9.194;2023-05-19T06:08:48;13.40;32.90
3067;DHT22;1544;48.834;9.194;2023-05-19T06:11:26;13.40;32.80
3067;DHT22;1544;48.834;9.194;2023-05-19T06:14:05;13.40;32.80
3067;DHT22;1544;48.834;9.194;2023-05-19T06:16:55;13.50;32.90
3067;DHT22;1544;48.834;9.194;2023-05-19T06:19:31;13.50;32.90
3067;DHT22;1544;48.834;9.194;2023-05-19T06:22:07;13.50;33.00
3067;DHT22;1544;48.834;9.194;2023-05-19T06:24:43;13.60;33.00
3067;DHT22;1544;48.834;9.194;2023-05-19T06:27:19;13.90;33.20
3067;DHT22;1544;48.834;9.194;2023-05-19T06:29:56;13.70;33.00
3067;DHT22;1544;48.834;9.194;2023-05-19T06:32:33;13.80;33.00
3067;DHT22;1544;48.834;9.194;2023-05-19T06:35:09;13.80;33.00
3067;DHT22;1544;48.834;9.194;2023-05-19T06:37:45;13.90;33.00
3067;DHT22;1544;48.834;9.194;2023-05-19T06:40:22;14.00;33.00
3067;DHT22;1544;48.834;9.194;2023-05-19T06:42:59;14.10;32.90
3067;DHT22;1544;48.834;9.194;2023-05-19T06:46:00;14.10;32.90
3067;DHT22;1544;48.834;9.194;2023-05-19T06:48:37;14.30;33.00
3067;DHT22;1544;48.834;9.194;2023-05-19T06:51:15;14.40;33.00
3067;DHT22;1544;48.834;9.194;2023-05-19T06:54:02;14.30;33.00
3067;DHT22;1544;48.834;9.194;2023-05-19T06:56:39;14.40;32.90
3067;DHT22;1544;48.834;9.194;2023-05-19T06:59:16;14.50;32.80
3067;DHT22;1544;48.834;9.194;2023-05-19T07:01:52;15.20;33.30
3067;DHT22;1544;48.834;9.194;2023-05-19T07:04:29;14.80;32.80
3067;DHT22;1544;48.834;9.194;2023-05-19T07:07:05;14.90;32.70
3067;DHT22;1544;48.834;9.194;2023-05-19T07:09:41;15.10;32.50
3067;DHT22;1544;48.834;9.194;2023-05-19T07:12:17;15.30;32.50
3067;DHT22;1544;48.834;9.194;2023-05-19T07:14:54;15.50;32.50
3067;DHT22;1544;48.834;9.194;2023-05-19T07:17:31;15.70;32.20
3067;DHT22;1544;48.834;9.194;2023-05-19T07:20:07;15.80;31.90
3067;DHT22;1544;48.834;9.194;2023-05-19T07:22:47;16.10;31.80
3067;DHT22;1544;48.834;9.194;2023-05-19T07:25:23;16.30;31.60
3067;DHT22;1544;48.834;9.194;2023-05-19T07:28:01;16.60;31.30
3067;DHT22;1544;48.834;9.194;2023-05-19T07:30:37;16.80;31.10
3067;DHT22;1544;48.834;9.194;2023-05-19T07:33:13;16.90;30.70
3067;DHT22;1544;48.834;9.194;2023-05-19T07:35:49;17.10;30.60
3067;DHT22;1544;48.834;9.194;2023-05-19T07:38:25;17.20;30.50
3067;DHT22;1544;48.834;9.194;2023-05-19T07:41:03;17.20;30.20
3067;DHT22;1544;48.834;9.194;2023-05-19T07:43:39;17.30;30.00
3067;DHT22;1544;48.834;9.194;2023-05-19T07:46:15;17.40;30.00
3067;DHT22;1544;48.834;9.194;2023-05-19T07:48:51;17.50;29.90
3067;DHT22;1544;48.834;9.194;2023-05-19T07:51:27;17.60;29.90
3067;DHT22;1544;48.834;9.194;2023-05-19T07:54:03;17.80;30.10
3067;DHT22;1544;48.834;9.194;2023-05-19T07:56:40;18.00;29.80
3067;DHT22;1544;48.834;9.194;2023-05-19T07:59:15;18.30;29.80
3067;DHT22;1544;48.834;9.194;2023-05-19T08:01:52;18.50;29.70
3067;DHT22;1544;48.834;9.194;2023-05-19T08:04:28;18.70;29.60
3067;DHT22;1544;48.834;9.194;2023-05-19T08:07:05;18.90;29.50
3067;DHT22;1544;48.834;9.194;2023-05-19T08:09:51;18.90;29.20
3067;DHT22;1544;48.834;9.194;2023-05-19T08:12:28;19.00;29.50
3067;DHT22;1544;48.834;9.194;2023-05-19T08:15:04;19.00;29.00
3067;DHT22;1544;48.834;9.194;2023-05-19T08:17:40;18.90;29.00
3067;DHT22;1544;48.834;9.194;2023-05-19T08:20:16;18.80;29.00
3067;DHT22;1544;48.834;9.194;2023-05-19T08:22:53;18.80;29.00
3067;DHT22;1544;48.834;9.194;2023-05-19T08:25:29;18.70;29.00
3067;DHT22;1544;48.834;9.194;2023-05-19T08:28:05;18.60;29.00
3067;DHT22;1544;48.834;9.194;2023-05-19T08:30:41;18.60;29.00
3067;DHT22;1544;48.834;9.194;2023-05-19T08:33:17;18.50;29.00
3067;DHT22;1544;48.834;9.194;2023-05-19T08:35:56;18.40;29.00
3067;DHT22;1544;48.834;9.194;2023-05-19T08:38:34;18.40;29.00
3067;DHT22;1544;48.834;9.194;2023-05-19T08:41:11;18.50;29.10
3067;DHT22;1544;48.834;9.194;2023-05-19T08:43:47;18.50;29.10
3067;DHT22;1544;48.834;9.194;2023-05-19T08:46:25;18.50;29.20
3067;DHT22;1544;48.834;9.194;2023-05-19T08:49:06;18.50;29.20
3067;DHT22;1544;48.834;9.194;2023-05-19T08:55:12;18.50;29.00
3067;DHT22;1544;48.834;9.194;2023-05-19T08:57:56;18.50;29.00
3067;DHT22;1544;48.834;9.194;2023-05-19T09:00:32;18.50;29.10
3067;DHT22;1544;48.834;9.194;2023-05-19T09:03:09;18.60;29.20
3067;DHT22;1544;48.834;9.194;2023-05-19T09:05:51;18.60;29.20
3067;DHT22;1544;48.834;9.194;2023-05-19T09:08:28;18.60;29.20
3067;DHT22;1544;48.834;9.194;2023-05-19T09:11:04;18.70;29.20
3067;DHT22;1544;48.834;9.194;2023-05-19T09:13:40;18.70;29.20
3067;DHT22;1544;48.834;9.194;2023-05-19T09:16:16;18.90;29.10
3067;DHT22;1544;48.834;9.194;2023-05-19T09:18:54;18.90;29.00
3067;DHT22;1544;48.834;9.194;2023-05-19T09:21:32;18.90;29.00
3067;DHT22;1544;48.834;9.194;2023-05-19T09:24:08;19.00;28.90
3067;DHT22;1544;48.834;9.194;2023-05-19T09:26:44;19.00;28.80
3067;DHT22;1544;48.834;9.194;2023-05-19T09:29:20;19.10;29.00
3067;DHT22;1544;48.834;9.194;2023-05-19T09:31:56;19.10;29.00
3067;DHT22;1544;48.834;9.194;2023-05-19T09:34:40;19.20;29.00
3067;DHT22;1544;48.834;9.194;2023-05-19T09:37:16;19.30;29.00
3067;DHT22;1544;48.834;9.194;2023-05-19T09:39:53;19.40;29.00
3067;DHT22;1544;48.834;9.194;2023-05-19T09:42:29;19.50;28.90
3067;DHT22;1544;48.834;9.194;2023-05-19T09:45:06;19.50;28.80
3067;DHT22;1544;48.834;9.194;2023-05-19T09:47:43;19.50;28.80
3067;DHT22;1544;48.834;9.194;2023-05-19T09:50:21;19.50;28.70
3067;DHT22;1544;48.834;9.194;2023-05-19T09:53:06;19.60;28.70
3067;DHT22;1544;48.834;9.194;2023-05-19T09:55:42;19.70;28.80
3067;DHT22;1544;48.834;9.194;2023-05-19T09:58:18;19.70;28.60
3067;DHT22;1544;48.834;9.194;2023-05-19T10:00:57;19.80;28.50
3067;DHT22;1544;48.834;9.194;2023-05-19T10:03:33;19.90;28.50
3067;DHT22;1544;48.834;9.194;2023-05-19T10:06:10;20.00;28.40
3067;DHT22;1544;48.834;9.194;2023-05-19T10:08:46;20.20;28.40
3067;DHT22;1544;48.834;9.194;2023-05-19T10:11:25;20.30;28.40
3067;DHT22;1544;48.834;9.194;2023-05-19T10:14:03;20.40;28.30
3067;DHT22;1544;48.834;9.194;2023-05-19T10:16:39;20.40;28.20
3067;DHT22;1544;48.834;9.194;2023-05-19T10:19:21;20.50;28.20
3067;DHT22;1544;48.834;9.194;2023-05-19T10:22:02;20.50;28.40
3067;DHT22;1544;48.834;9.194;2023-05-19T10:24:38;20.50;28.40
3067;DHT22;1544;48.834;9.194;2023-05-19T10:27:15;20.50;28.30
3067;DHT22;1544;48.834;9.194;2023-05-19T10:29:54;20.50;28.30
3067;DHT22;1544;48.834;9.194;2023-05-19T10:32:32;20.40;28.30
3067;DHT22;1544;48.834;9.194;2023-05-19T10:38:41;20.30;28.20
3067;DHT22;1544;48.834;9.194;2023-05-19T10:48:03;20.20;28.40
3067;DHT22;1544;48.834;9.194;2023-05-19T10:50:42;20.30;28.20
3067;DHT22;1544;48.834;9.194;2023-05-19T10:53:20;20.50;28.10
3067;DHT22;1544;48.834;9.194;2023-05-19T10:56:00;20.60;28.10
3067;DHT22;1544;48.834;9.194;2023-05-19T11:01:20;20.70;27.90
3067;DHT22;1544;48.834;9.194;2023-05-19T11:04:09;20.60;27.80
3067;DHT22;1544;48.834;9.194;2023-05-19T11:06:50;20.50;27.70
3067;DHT22;1544;48.834;9.194;2023-05-19T11:09:27;20.30;28.00
3067;DHT22;1544;48.834;9.194;2023-05-19T11:12:19;20.20;28.00
3067;DHT22;1544;48.834;9.194;2023-05-19T11:14:59;20.10;28.00
3067;DHT22;1544;48.834;9.194;2023-05-19T11:17:39;20.10;28.00
3067;DHT22;1544;48.834;9.194;2023-05-19T11:20:26;20.00;28.00
3067;DHT22;1544;48.834;9.194;2023-05-19T11:23:03;20.10;28.20
3067;DHT22;1544;48.834;9.194;2023-05-19T11:25:48;20.10;28.30
3067;DHT22;1544;48.834;9.194;2023-05-19T11:28:26;20.20;28.20
3067;DHT22;1544;48.834;9.194;2023-05-19T11:31:05;20.30;28.10
3067;DHT22;1544;48.834;9.194;2023-05-19T11:33:45;20.40;28.20
3067;DHT22;1544;48.834;9.194;2023-05-19T11:36:22;20.40;28.30
3067;DHT22;1544;48.834;9.194;2023-05-19T11:39:00;20.50;28.30
3067;DHT22;1544;48.834;9.194;2023-05-19T11:41:38;20.50;28.20
3067;DHT22;1544;48.834;9.194;2023-05-19T11:44:15;20.50;28.10
3067;DHT22;1544;48.834;9.194;2023-05-19T11:46:51;20.40;27.90
3067;DHT22;1544;48.834;9.194;2023-05-19T11:49:28;20.40;27.90
3067;DHT22;1544;48.834;9.194;2023-05-19T11:52:04;20.30;28.00
3067;DHT22;1544;48.834;9.194;2023-05-19T11:54:40;20.40;28.10
3067;DHT22;1544;48.834;9.194;2023-05-19T11:57:16;20.50;28.00
3067;DHT22;1544;48.834;9.194;2023-05-19T11:59:52;20.60;28.00
3067;DHT22;1544;48.834;9.194;2023-05-19T12:02:31;20.70;28.10
3067;DHT22;1544;48.834;9.194;2023-05-19T12:05:18;20.80;28.20
3067;DHT22;1544;48.834;9.194;2023-05-19T12:07:57;20.80;28.40
3067;DHT22;1544;48.834;9.194;2023-05-19T12:10:34;20.80;28.10
3067;DHT22;1544;48.834;9.194;2023-05-19T12:13:11;20.80;28.10
3067;DHT22;1544;48.834;9.194;2023-05-19T12:15:50;20.80;28.10
3067;DHT22;1544;48.834;9.194;2023-05-19T12:18:29;20.80;28.10
3067;DHT22;1544;48.834;9.194;2023-05-19T12:21:06;20.80;28.00
3067;DHT22;1544;48.834;9.194;2023-05-19T12:23:43;20.80;27.90
3067;DHT22;1544;48.834;9.194;2023-05-19T12:26:20;20.80;27.90
3067;DHT22;1544;48.834;9.194;2023-05-19T12:28:57;20.90;28.10
3067;DHT22;1544;48.834;9.194;2023-05-19T12:31:33;20.80;27.90
3067;DHT22;1544;48.834;9.194;2023-05-19T12:34:11;20.90;27.90
3067;DHT22;1544;48.834;9.194;2023-05-19T12:36:47;20.90;27.90
3067;DHT22;1544;48.834;9.194;2023-05-19T12:39:24;20.80;28.10
3067;DHT22;1544;48.834;9.194;2023-05-19T12:42:02;20.70;28.30
3067;DHT22;1544;48.834;9.194;2023-05-19T12:44:44;20.70;28.10
3067;DHT22;1544;48.834;9.194;2023-05-19T12:47:32;20.40;28.00
3067;DHT22;1544;48.834;9.194;2023-05-19T12:50:09;20.40;28.50
3067;DHT22;1544;48.834;9.194;2023-05-19T12:52:47;20.30;28.30
3067;DHT22;1544;48.834;9.194;2023-05-19T12:55:27;20.10;28.30
3067;DHT22;1544;48.834;9.194;2023-05-19T12:58:05;20.10;28.50
3067;DHT22;1544;48.834;9.194;2023-05-19T13:00:43;19.90;28.50
3067;DHT22;1544;48.834;9.194;2023-05-19T13:03:22;19.70;28.50
3067;DHT22;1544;48.834;9.194;2023-05-19T13:05:58;19.60;28.60
3067;DHT22;1544;48.834;9.194;2023-05-19T13:08:35;19.50;28.70
3067;DHT22;1544;48.834;9.194;2023-05-19T13:11:11;19.30;28.70
3067;DHT22;1544;48.834;9.194;2023-05-19T13:13:47;19.20;28.80
3067;DHT22;1544;48.834;9.194;2023-05-19T13:16:23;19.20;28.90
3067;DHT22;1544;48.834;9.194;2023-05-19T13:18:59;19.20;28.90
3067;DHT22;1544;48.834;9.194;2023-05-19T13:21:36;19.10;28.80
3067;DHT22;1544;48.834;9.194;2023-05-19T13:24:12;19.20;29.00
3067;DHT22;1544;48.834;9.194;2023-05-19T13:26:48;19.30;29.00
3067;DHT22;1544;48.834;9.194;2023-05-19T13:29:25;19.40;29.00
3067;DHT22;1544;48.834;9.194;2023-05-19T13:32:02;19.60;29.10
3067;DHT22;1544;48.834;9.194;2023-05-19T13:34:38;19.70;29.10
3067;DHT22;1544;48.834;9.194;2023-05-19T13:37:14;19.70;28.80
3067;DHT22;1544;48.834;9.194;2023-05-19T13:39:50;19.90;28.80
3067;DHT22;1544;48.834;9.194;2023-05-19T13:42:26;20.00;28.80
3067;DHT22;1544;48.834;9.194;2023-05-19T13:45:03;20.00;28.80
3067;DHT22;1544;48.834;9.194;2023-05-19T13:47:40;20.00;28.70
3067;DHT22;1544;48.834;9.194;2023-05-19T13:50:16;20.00;28.80
3067;DHT22;1544;48.834;9.194;2023-05-19T13:52:52;19.90;28.70
3067;DHT22;1544;48.834;9.194;2023-05-19T13:55:28;19.90;28.90
3067;DHT22;1544;48.834;9.194;2023-05-19T13:58:04;19.80;28.90
3067;DHT22;1544;48.834;9.194;2023-05-19T14:00:40;19.80;29.00
3067;DHT22;1544;48.834;9.194;2023-05-19T14:03:16;19.70;29.00
3067;DHT22;1544;48.834;9.194;2023-05-19T14:05:54;19.70;29.20
3067;DHT22;1544;48.834;9.194;2023-05-19T14:08:30;19.60;29.20
3067;DHT22;1544;48.834;9.194;2023-05-19T14:11:07;19.50;29.20
3067;DHT22;1544;48.834;9.194;2023-05-19T14:13:43;19.50;29.20
3067;DHT22;1544;48.834;9.194;2023-05-19T14:16:19;19.50;29.30
3067;DHT22;1544;48.834;9.194;2023-05-19T14:18:56;19.60;29.30
3067;DHT22;1544;48.834;9.194;2023-05-19T14:21:33;19.70;29.30
3067;DHT22;1544;48.834;9.194;2023-05-19T14:24:09;19.80;29.30
3067;DHT22;1544;48.834;9.194;2023-05-19T14:26:45;19.90;29.20
3067;DHT22;1544;48.834;9.194;2023-05-19T14:29:22;19.90;29.00
3067;DHT22;1544;48.834;9.194;2023-05-19T14:31:58;20.00;29.10
3067;DHT22;1544;48.834;9.194;2023-05-19T14:34:34;20.10;29.10
3067;DHT22;1544;48.834;9.194;2023-05-19T14:37:10;20.10;29.00
3067;DHT22;1544;48.834;9.194;2023-05-19T14:39:47;20.10;29.10
3067;DHT22;1544;48.834;9.194;2023-05-19T14:42:23;20.20;29.10
3067;DHT22;1544;48.834;9.194;2023-05-19T14:44:59;20.20;29.00
3067;DHT22;1544;48.834;9.194;2023-05-19T14:47:35;20.30;29.10
3067;DHT22;1544;48.834;9.194;2023-05-19T14:50:11;20.40;29.30
3067;DHT22;1544;48.834;9.194;2023-05-19T14:52:48;20.40;29.10
3067;DHT22;1544;48.834;9.194;2023-05-19T14:55:24;20.30;29.00
3067;DHT22;1544;48.834;9.194;2023-05-19T14:58:00;20.40;29.10
3067;DHT22;1544;48.834;9.194;2023-05-19T15:00:38;20.40;29.10
3067;DHT22;1544;48.834;9.194;2023-05-19T15:03:14;20.40;29.00
3067;DHT22;1544;48.834;9.194;2023-05-19T15:05:51;20.40;29.20
3067;DHT22;1544;48.834;9.194;2023-05-19T15:08:27;20.40;29.00
3067;DHT22;1544;48.834;9.194;2023-05-19T15:11:03;20.30;29.10
3067;DHT22;1544;48.834;9.194;2023-05-19T15:13:39;20.30;29.10
3067;DHT22;1544;48.834;9.194;2023-05-19T15:16:15;20.30;29.30
3067;DHT22;1544;48.834;9.194;2023-05-19T15:18:53;20.20;29.30
3067;DHT22;1544;48.834;9.194;2023-05-19T15:21:29;20.20;29.40
3067;DHT22;1544;48.834;9.194;2023-05-19T15:24:05;20.10;29.30
3067;DHT22;1544;48.834;9.194;2023-05-19T15:26:41;20.00;29.10
3067;DHT22;1544;48.834;9.194;2023-05-19T15:29:17;20.10;29.20
3067;DHT22;1544;48.834;9.194;2023-05-19T15:31:53;20.00;29.20
3067;DHT22;1544;48.834;9.194;2023-05-19T15:34:30;20.00;29.30
3067;DHT22;1544;48.834;9.194;2023-05-19T15:37:06;20.10;29.20
3067;DHT22;1544;48.834;9.194;2023-05-19T15:39:42;20.20;29.20
3067;DHT22;1544;48.834;9.194;2023-05-19T15:42:18;20.30;29.30
3067;DHT22;1544;48.834;9.194;2023-05-19T15:44:54;20.40;29.20
3067;DHT22;1544;48.834;9.194;2023-05-19T15:47:30;20.50;29.30
3067;DHT22;1544;48.834;9.194;2023-05-19T15:50:07;20.60;29.30
3067;DHT22;1544;48.834;9.194;2023-05-19T15:52:43;20.70;29.20
3067;DHT22;1544;48.834;9.194;2023-05-19T15:55:19;20.70;29.10
3067;DHT22;1544;48.834;9.194;2023-05-19T15:57:59;20.70;29.00
3067;DHT22;1544;48.834;9.194;2023-05-19T16:00:52;20.80;29.00
3067;DHT22;1544;48.834;9.194;2023-05-19T16:03:30;20.90;29.10
3067;DHT22;1544;48.834;9.194;2023-05-19T16:06:06;20.80;29.00
3067;DHT22;1544;48.834;9.194;2023-05-19T16:08:42;20.70;29.00
3067;DHT22;1544;48.834;9.194;2023-05-19T16:11:18;20.70;28.90
3067;DHT22;1544;48.834;9.194;2023-05-19T16:13:56;20.80;28.90
3067;DHT22;1544;48.834;9.194;2023-05-19T16:16:33;20.90;29.00
3067;DHT22;1544;48.834;9.194;2023-05-19T16:19:09;21.00;29.00
3067;DHT22;1544;48.834;9.194;2023-05-19T16:21:45;21.10;29.00
3067;DHT22;1544;48.834;9.194;2023-05-19T16:24:21;21.20;28.90
3067;DHT22;1544;48.834;9.194;2023-05-19T16:26:57;21.40;28.80
3067;DHT22;1544;48.834;9.194;2023-05-19T16:29:33;21.60;28.80
3067;DHT22;1544;48.834;9.194;2023-05-19T16:32:09;21.70;28.80
3067;DHT22;1544;48.834;9.194;2023-05-19T16:34:45;21.70;28.70
3067;DHT22;1544;48.834;9.194;2023-05-19T16:37:21;21.90;28.70
3067;DHT22;1544;48.834;9.194;2023-05-19T16:39:57;22.00;28.60
3067;DHT22;1544;48.834;9.194;2023-05-19T16:42:35;22.10;28.60
3067;DHT22;1544;48.834;9.194;2023-05-19T16:45:14;22.20;28.60
3067;DHT22;1544;48.834;9.194;2023-05-19T16:47:58;22.30;28.50
3067;DHT22;1544;48.834;9.194;2023-05-19T16:50:34;22.30;28.40
3067;DHT22;1544;48.834;9.194;2023-05-19T16:53:13;22.30;28.40
3067;DHT22;1544;48.834;9.194;2023-05-19T16:55:49;22.40;28.50
3067;DHT22;1544;48.834;9.194;2023-05-19T16:58:25;22.60;28.50
3067;DHT22;1544;48.834;9.194;2023-05-19T17:01:03;22.80;28.30
3067;DHT22;1544;48.834;9.194;2023-05-19T17:03:39;22.90;28.30
3067;DHT22;1544;48.834;9.194;2023-05-19T17:06:16;23.10;28.40
3067;DHT22;1544;48.834;9.194;2023-05-19T17:08:52;23.30;28.40
3067;DHT22;1544;48.834;9.194;2023-05-19T17:11:28;23.40;28.20
3067;DHT22;1544;48.834;9.194;2023-05-19T17:14:04;23.50;28.10
3067;DHT22;1544;48.834;9.194;2023-05-19T17:16:43;23.60;27.90
3067;DHT22;1544;48.834;9.194;2023-05-19T17:19:19;23.70;27.90
3067;DHT22;1544;48.834;9.194;2023-05-19T17:21:56;23.70;27.60
3067;DHT22;1544;48.834;9.194;2023-05-19T17:24:32;23.80;27.70
3067;DHT22;1544;48.834;9.194;2023-05-19T17:27:09;23.90;27.70
3067;DHT22;1544;48.834;9.194;2023-05-19T17:29:45;23.90;27.70
3067;DHT22;1544;48.834;9.194;2023-05-19T17:32:21;23.80;27.90
3067;DHT22;1544;48.834;9.194;2023-05-19T17:35:01;23.70;27.60
3067;DHT22;1544;48.834;9.194;2023-05-19T17:37:38;23.50;27.80